sensor_id;sensor_type;location;lat;lon;timestamp;P1;durP1;ratioP1;P2;durP2;ratioP2
44139;SDS011;29803;51.048;4.686;2023-12-20T00:00:39;17.77;;;2.92;;
44139;SDS011;29803;51.048;4.686;2023-12-20T00:03:10;16.98;;;2.55;;
44139;SDS011;29803;51.048;4.686;2023-12-20T00:05:40;21.85;;;3.30;;
44139;SDS011;29803;51.048;4.686;2023-12-20T00:08:11;15.75;;;2.90;;
44139;SDS011;29803;51.048;4.686;2023-12-20T00:10:42;13.20;;;2.45;;
44139;SDS011;29803;51.048;4.686;2023-12-20T00:13:13;11.85;;;3.45;;
44139;SDS011;29803;51.048;4.686;2023-12-20T00:15:44;14.20;;;2.55;;
44139;SDS011;29803;51.048;4.686;2023-12-20T00:18:14;17.58;;;2.42;;
44139;SDS011;29803;51.048;4.686;2023-12-20T00:20:45;11.90;;;2.33;;
44139;SDS011;29803;51.048;4.686;2023-12-20T00:23:15;28.67;;;3.08;;
44139;SDS011;29803;51.048;4.686;2023-12-20T00:25:46;12.05;;;2.45;;
44139;SDS011;29803;51.048;4.686;2023-12-20T00:28:17;20.75;;;2.75;;
44139;SDS011;29803;51.048;4.686;2023-12-20T00:30:47;15.02;;;3.10;;
44139;SDS011;29803;51.048;4.686;2023-12-20T00:33:18;17.33;;;2.90;;
44139;SDS011;29803;51.048;4.686;2023-12-20T00:35:49;14.82;;;3.22;;
44139;SDS011;29803;51.048;4.686;2023-12-20T00:38:19;14.65;;;3.25;;
44139;SDS011;29803;51.048;4.686;2023-12-20T00:40:50;27.70;;;3.75;;
44139;SDS011;29803;51.048;4.686;2023-12-20T00:43:20;19.65;;;3.72;;
44139;SDS011;29803;51.048;4.686;2023-12-20T00:45:51;16.45;;;4.03;;
44139;SDS011;29803;51.048;4.686;2023-12-20T00:48:21;12.70;;;3.55;;
44139;SDS011;29803;51.048;4.686;2023-12-20T00:50:52;19.48;;;4.65;;
44139;SDS011;29803;51.048;4.686;2023-12-20T00:53:22;24.73;;;4.63;;
44139;SDS011;29803;51.048;4.686;2023-12-20T00:55:53;21.90;;;4.50;;
44139;SDS011;29803;51.048;4.686;2023-12-20T00:58:23;20.63;;;4.03;;
44139;SDS011;29803;51.048;4.686;2023-12-20T01:00:54;18.02;;;4.20;;
44139;SDS011;29803;51.048;4.686;2023-12-20T01:03:24;18.85;;;4.38;;
44139;SDS011;29803;51.048;4.686;2023-12-20T01:05:55;26.42;;;4.85;;
44139;SDS011;29803;51.048;4.686;2023-12-20T01:08:25;24.67;;;4.63;;
44139;SDS011;29803;51.048;4.686;2023-12-20T01:10:56;10.38;;;3.85;;
44139;SDS011;29803;51.048;4.686;2023-12-20T01:13:26;12.52;;;3.72;;
44139;SDS011;29803;51.048;4.686;2023-12-20T01:15:57;21.42;;;3.92;;
44139;SDS011;29803;51.048;4.686;2023-12-20T01:18:27;12.77;;;4.30;;
44139;SDS011;29803;51.048;4.686;2023-12-20T01:21:01;26.00;;;3.80;;
44139;SDS011;29803;51.048;4.686;2023-12-20T01:26:03;22.88;;;4.13;;
44139;SDS011;29803;51.048;4.686;2023-12-20T01:28:35;21.15;;;4.10;;
44139;SDS011;29803;51.048;4.686;2023-12-20T01:31:06;20.52;;;3.80;;
44139;SDS011;29803;51.048;4.686;2023-12-20T01:33:36;16.50;;;4.47;;
44139;SDS011;29803;51.048;4.686;2023-12-20T01:36:07;17.38;;;3.67;;
44139;SDS011;29803;51.048;4.686;2023-12-20T01:38:37;23.48;;;4.32;;
44139;SDS011;29803;51.048;4.686;2023-12-20T01:41:08;29.02;;;6.40;;
44139;SDS011;29803;51.048;4.686;2023-12-20T01:43:38;16.10;;;4.53;;
44139;SDS011;29803;51.048;4.686;2023-12-20T01:46:09;22.73;;;4.18;;
44139;SDS011;29803;51.048;4.686;2023-12-20T01:48:40;23.30;;;4.25;;
44139;SDS011;29803;51.048;4.686;2023-12-20T01:51:11;14.25;;;3.50;;
44139;SDS011;29803;51.048;4.686;2023-12-20T01:53:42;11.25;;;4.15;;
44139;SDS011;29803;51.048;4.686;2023-12-20T01:56:14;18.58;;;3.83;;
44139;SDS011;29803;51.048;4.686;2023-12-20T01:58:46;22.48;;;5.00;;
44139;SDS011;29803;51.048;4.686;2023-12-20T02:01:17;23.27;;;4.97;;
44139;SDS011;29803;51.048;4.686;2023-12-20T02:03:48;20.60;;;4.03;;
44139;SDS011;29803;51.048;4.686;2023-12-20T02:06:20;27.77;;;4.45;;
44139;SDS011;29803;51.048;4.686;2023-12-20T02:08:59;25.02;;;4.15;;
44139;SDS011;29803;51.048;4.686;2023-12-20T02:11:30;24.90;;;4.25;;
44139;SDS011;29803;51.048;4.686;2023-12-20T02:14:01;19.92;;;4.13;;
44139;SDS011;29803;51.048;4.686;2023-12-20T02:16:32;22.17;;;5.30;;
44139;SDS011;29803;51.048;4.686;2023-12-20T02:19:03;18.13;;;4.80;;
44139;SDS011;29803;51.048;4.686;2023-12-20T02:21:39;16.05;;;4.10;;
44139;SDS011;29803;51.048;4.686;2023-12-20T02:24:10;19.73;;;3.80;;
44139;SDS011;29803;51.048;4.686;2023-12-20T02:26:40;21.60;;;4.07;;
44139;SDS011;29803;51.048;4.686;2023-12-20T02:29:11;31.52;;;4.75;;
44139;SDS011;29803;51.048;4.686;2023-12-20T02:31:42;26.55;;;4.15;;
44139;SDS011;29803;51.048;4.686;2023-12-20T02:34:13;25.70;;;4.93;;
44139;SDS011;29803;51.048;4.686;2023-12-20T02:36:43;23.42;;;4.85;;
44139;SDS011;29803;51.048;4.686;2023-12-20T02:39:14;23.98;;;4.15;;
44139;SDS011;29803;51.048;4.686;2023-12-20T02:41:44;20.35;;;4.32;;
44139;SDS011;29803;51.048;4.686;2023-12-20T02:44:14;21.92;;;4.30;;
44139;SDS011;29803;51.048;4.686;2023-12-20T02:46:45;21.08;;;4.90;;
44139;SDS011;29803;51.048;4.686;2023-12-20T02:49:15;21.10;;;4.78;;
44139;SDS011;29803;51.048;4.686;2023-12-20T02:51:47;24.27;;;5.13;;
44139;SDS011;29803;51.048;4.686;2023-12-20T02:54:17;22.30;;;5.35;;
44139;SDS011;29803;51.048;4.686;2023-12-20T02:56:48;21.77;;;4.20;;
44139;SDS011;29803;51.048;4.686;2023-12-20T02:59:18;18.42;;;4.05;;
44139;SDS011;29803;51.048;4.686;2023-12-20T03:01:49;24.67;;;4.88;;
44139;SDS011;29803;51.048;4.686;2023-12-20T03:04:19;36.40;;;5.38;;
44139;SDS011;29803;51.048;4.686;2023-12-20T03:06:50;19.75;;;5.25;;
44139;SDS011;29803;51.048;4.686;2023-12-20T03:09:21;27.65;;;4.72;;
44139;SDS011;29803;51.048;4.686;2023-12-20T03:11:52;30.98;;;4.55;;
44139;SDS011;29803;51.048;4.686;2023-12-20T03:14:23;23.90;;;5.00;;
44139;SDS011;29803;51.048;4.686;2023-12-20T03:17:01;19.65;;;3.65;;
44139;SDS011;29803;51.048;4.686;2023-12-20T03:19:32;22.75;;;3.90;;
44139;SDS011;29803;51.048;4.686;2023-12-20T03:22:12;25.45;;;3.72;;
44139;SDS011;29803;51.048;4.686;2023-12-20T03:24:43;49.83;;;5.20;;
44139;SDS011;29803;51.048;4.686;2023-12-20T03:27:13;21.98;;;4.80;;
44139;SDS011;29803;51.048;4.686;2023-12-20T03:29:47;28.80;;;4.50;;
44139;SDS011;29803;51.048;4.686;2023-12-20T03:32:17;35.10;;;4.18;;
44139;SDS011;29803;51.048;4.686;2023-12-20T03:34:48;15.70;;;3.17;;
44139;SDS011;29803;51.048;4.686;2023-12-20T03:37:23;26.93;;;3.87;;
44139;SDS011;29803;51.048;4.686;2023-12-20T03:39:55;16.42;;;3.60;;
44139;SDS011;29803;51.048;4.686;2023-12-20T03:42:25;21.73;;;3.97;;
44139;SDS011;29803;51.048;4.686;2023-12-20T03:44:56;30.13;;;3.70;;
44139;SDS011;29803;51.048;4.686;2023-12-20T03:47:26;15.02;;;3.47;;
44139;SDS011;29803;51.048;4.686;2023-12-20T03:49:57;16.85;;;3.17;;
44139;SDS011;29803;51.048;4.686;2023-12-20T03:52:27;15.80;;;4.03;;
44139;SDS011;29803;51.048;4.686;2023-12-20T03:54:58;18.90;;;3.53;;
44139;SDS011;29803;51.048;4.686;2023-12-20T03:57:28;16.98;;;3.72;;
44139;SDS011;29803;51.048;4.686;2023-12-20T03:59:59;23.75;;;3.67;;
44139;SDS011;29803;51.048;4.686;2023-12-20T04:02:29;18.08;;;5.50;;
44139;SDS011;29803;51.048;4.686;2023-12-20T04:05:00;24.77;;;3.67;;
44139;SDS011;29803;51.048;4.686;2023-12-20T04:07:30;23.17;;;3.38;;
44139;SDS011;29803;51.048;4.686;2023-12-20T04:10:01;19.17;;;3.15;;
44139;SDS011;29803;51.048;4.686;2023-12-20T04:12:32;21.58;;;3.90;;
44139;SDS011;29803;51.048;4.686;2023-12-20T04:15:03;25.00;;;4.55;;
44139;SDS011;29803;51.048;4.686;2023-12-20T04:17:39;28.17;;;4.18;;
44139;SDS011;29803;51.048;4.686;2023-12-20T04:20:09;19.80;;;3.70;;
44139;SDS011;29803;51.048;4.686;2023-12-20T04:22:40;25.55;;;3.88;;
44139;SDS011;29803;51.048;4.686;2023-12-20T04:25:12;22.48;;;3.85;;
44139;SDS011;29803;51.048;4.686;2023-12-20T04:27:43;23.20;;;4.40;;
44139;SDS011;29803;51.048;4.686;2023-12-20T04:30:14;21.52;;;3.90;;
44139;SDS011;29803;51.048;4.686;2023-12-20T04:32:44;25.05;;;4.75;;
44139;SDS011;29803;51.048;4.686;2023-12-20T04:35:15;20.88;;;4.00;;
44139;SDS011;29803;51.048;4.686;2023-12-20T04:37:45;15.98;;;4.00;;
44139;SDS011;29803;51.048;4.686;2023-12-20T04:40:16;35.28;;;5.00;;
44139;SDS011;29803;51.048;4.686;2023-12-20T04:42:46;19.20;;;4.70;;
44139;SDS011;29803;51.048;4.686;2023-12-20T04:45:17;21.75;;;5.20;;
44139;SDS011;29803;51.048;4.686;2023-12-20T04:47:49;26.95;;;7.20;;
44139;SDS011;29803;51.048;4.686;2023-12-20T04:50:20;28.15;;;4.93;;
44139;SDS011;29803;51.048;4.686;2023-12-20T04:52:51;23.23;;;5.22;;
44139;SDS011;29803;51.048;4.686;2023-12-20T04:55:22;25.65;;;4.85;;
44139;SDS011;29803;51.048;4.686;2023-12-20T04:57:52;26.73;;;3.70;;
44139;SDS011;29803;51.048;4.686;2023-12-20T05:00:23;19.13;;;4.13;;
44139;SDS011;29803;51.048;4.686;2023-12-20T05:02:53;35.88;;;5.72;;
44139;SDS011;29803;51.048;4.686;2023-12-20T05:05:24;30.92;;;5.45;;
44139;SDS011;29803;51.048;4.686;2023-12-20T05:07:55;23.08;;;4.43;;
44139;SDS011;29803;51.048;4.686;2023-12-20T05:10:25;26.80;;;4.28;;
44139;SDS011;29803;51.048;4.686;2023-12-20T05:12:57;20.60;;;4.05;;
44139;SDS011;29803;51.048;4.686;2023-12-20T05:15:27;24.75;;;3.85;;
44139;SDS011;29803;51.048;4.686;2023-12-20T05:17:58;32.45;;;4.72;;
44139;SDS011;29803;51.048;4.686;2023-12-20T05:20:28;26.95;;;3.83;;
44139;SDS011;29803;51.048;4.686;2023-12-20T05:22:59;22.02;;;4.50;;
44139;SDS011;29803;51.048;4.686;2023-12-20T05:25:29;35.42;;;8.20;;
44139;SDS011;29803;51.048;4.686;2023-12-20T05:28:00;29.75;;;4.68;;
44139;SDS011;29803;51.048;4.686;2023-12-20T05:30:30;31.08;;;5.25;;
44139;SDS011;29803;51.048;4.686;2023-12-20T05:33:01;23.52;;;4.35;;
44139;SDS011;29803;51.048;4.686;2023-12-20T05:35:31;22.88;;;4.68;;
44139;SDS011;29803;51.048;4.686;2023-12-20T05:38:02;16.35;;;3.55;;
44139;SDS011;29803;51.048;4.686;2023-12-20T05:40:32;19.58;;;4.65;;
44139;SDS011;29803;51.048;4.686;2023-12-20T05:43:03;22.52;;;4.47;;
44139;SDS011;29803;51.048;4.686;2023-12-20T05:45:33;29.77;;;5.03;;
44139;SDS011;29803;51.048;4.686;2023-12-20T05:48:04;30.70;;;5.50;;
44139;SDS011;29803;51.048;4.686;2023-12-20T05:50:35;32.22;;;6.07;;
44139;SDS011;29803;51.048;4.686;2023-12-20T05:53:06;20.17;;;5.47;;
44139;SDS011;29803;51.048;4.686;2023-12-20T05:55:37;32.22;;;7.80;;
44139;SDS011;29803;51.048;4.686;2023-12-20T05:58:07;37.58;;;10.38;;
44139;SDS011;29803;51.048;4.686;2023-12-20T06:00:38;47.10;;;12.15;;
44139;SDS011;29803;51.048;4.686;2023-12-20T06:03:08;70.05;;;19.77;;
44139;SDS011;29803;51.048;4.686;2023-12-20T06:05:39;91.70;;;25.23;;
44139;SDS011;29803;51.048;4.686;2023-12-20T06:08:09;102.35;;;30.75;;
44139;SDS011;29803;51.048;4.686;2023-12-20T06:10:40;38.50;;;8.90;;
44139;SDS011;29803;51.048;4.686;2023-12-20T06:13:11;37.00;;;7.88;;
44139;SDS011;29803;51.048;4.686;2023-12-20T06:15:43;69.82;;;18.42;;
44139;SDS011;29803;51.048;4.686;2023-12-20T06:18:13;81.60;;;25.08;;
44139;SDS011;29803;51.048;4.686;2023-12-20T06:20:44;36.13;;;8.70;;
44139;SDS011;29803;51.048;4.686;2023-12-20T06:23:14;30.98;;;7.70;;
44139;SDS011;29803;51.048;4.686;2023-12-20T06:25:45;68.28;;;18.35;;
44139;SDS011;29803;51.048;4.686;2023-12-20T06:28:15;58.10;;;21.55;;
44139;SDS011;29803;51.048;4.686;2023-12-20T06:30:46;36.33;;;8.50;;
44139;SDS011;29803;51.048;4.686;2023-12-20T06:33:19;27.48;;;4.22;;
44139;SDS011;29803;51.048;4.686;2023-12-20T06:35:51;22.77;;;3.90;;
44139;SDS011;29803;51.048;4.686;2023-12-20T06:38:22;23.88;;;3.50;;
44139;SDS011;29803;51.048;4.686;2023-12-20T06:40:53;25.45;;;3.50;;
44139;SDS011;29803;51.048;4.686;2023-12-20T06:43:24;21.50;;;3.58;;
44139;SDS011;29803;51.048;4.686;2023-12-20T06:45:54;18.05;;;3.38;;
44139;SDS011;29803;51.048;4.686;2023-12-20T06:48:25;23.98;;;3.67;;
44139;SDS011;29803;51.048;4.686;2023-12-20T06:50:55;28.20;;;4.03;;
44139;SDS011;29803;51.048;4.686;2023-12-20T06:53:26;32.00;;;5.18;;
44139;SDS011;29803;51.048;4.686;2023-12-20T06:55:57;23.45;;;3.97;;
44139;SDS011;29803;51.048;4.686;2023-12-20T06:58:27;21.40;;;3.85;;
44139;SDS011;29803;51.048;4.686;2023-12-20T07:00:58;29.38;;;4.35;;
44139;SDS011;29803;51.048;4.686;2023-12-20T07:03:28;22.73;;;3.30;;
44139;SDS011;29803;51.048;4.686;2023-12-20T07:05:59;30.05;;;4.15;;
44139;SDS011;29803;51.048;4.686;2023-12-20T07:08:29;25.10;;;4.32;;
44139;SDS011;29803;51.048;4.686;2023-12-20T07:11:00;47.63;;;4.97;;
44139;SDS011;29803;51.048;4.686;2023-12-20T07:13:30;26.52;;;4.00;;
44139;SDS011;29803;51.048;4.686;2023-12-20T07:16:01;25.90;;;3.88;;
44139;SDS011;29803;51.048;4.686;2023-12-20T07:18:31;23.27;;;4.60;;
44139;SDS011;29803;51.048;4.686;2023-12-20T07:21:02;22.10;;;3.70;;
44139;SDS011;29803;51.048;4.686;2023-12-20T07:23:33;25.42;;;3.75;;
44139;SDS011;29803;51.048;4.686;2023-12-20T07:26:04;24.77;;;5.28;;
44139;SDS011;29803;51.048;4.686;2023-12-20T07:28:34;24.55;;;7.00;;
44139;SDS011;29803;51.048;4.686;2023-12-20T07:31:05;26.80;;;6.15;;
44139;SDS011;29803;51.048;4.686;2023-12-20T07:33:35;26.55;;;4.22;;
44139;SDS011;29803;51.048;4.686;2023-12-20T07:36:06;27.52;;;3.60;;
44139;SDS011;29803;51.048;4.686;2023-12-20T07:38:37;19.63;;;3.90;;
44139;SDS011;29803;51.048;4.686;2023-12-20T07:41:09;26.15;;;3.00;;
44139;SDS011;29803;51.048;4.686;2023-12-20T07:43:40;25.58;;;4.15;;
44139;SDS011;29803;51.048;4.686;2023-12-20T07:46:11;23.48;;;4.55;;
44139;SDS011;29803;51.048;4.686;2023-12-20T07:48:41;25.25;;;4.40;;
44139;SDS011;29803;51.048;4.686;2023-12-20T07:51:12;27.17;;;5.50;;
44139;SDS011;29803;51.048;4.686;2023-12-20T07:53:43;21.25;;;3.83;;
44139;SDS011;29803;51.048;4.686;2023-12-20T07:56:14;20.95;;;4.30;;
44139;SDS011;29803;51.048;4.686;2023-12-20T07:58:45;25.90;;;3.78;;
44139;SDS011;29803;51.048;4.686;2023-12-20T08:01:18;29.65;;;3.25;;
44139;SDS011;29803;51.048;4.686;2023-12-20T08:03:49;9.77;;;3.08;;
44139;SDS011;29803;51.048;4.686;2023-12-20T08:06:20;25.83;;;5.28;;
44139;SDS011;29803;51.048;4.686;2023-12-20T08:08:51;25.27;;;3.78;;
44139;SDS011;29803;51.048;4.686;2023-12-20T08:11:22;17.60;;;2.85;;
44139;SDS011;29803;51.048;4.686;2023-12-20T08:13:52;37.65;;;4.00;;
44139;SDS011;29803;51.048;4.686;2023-12-20T08:16:22;26.00;;;5.75;;
44139;SDS011;29803;51.048;4.686;2023-12-20T08:18:53;27.08;;;6.28;;
44139;SDS011;29803;51.048;4.686;2023-12-20T08:21:23;22.55;;;3.95;;
44139;SDS011;29803;51.048;4.686;2023-12-20T08:23:54;19.13;;;4.57;;
44139;SDS011;29803;51.048;4.686;2023-12-20T08:26:24;26.00;;;5.13;;
44139;SDS011;29803;51.048;4.686;2023-12-20T08:28:55;38.80;;;10.85;;
44139;SDS011;29803;51.048;4.686;2023-12-20T08:31:26;32.25;;;10.27;;
44139;SDS011;29803;51.048;4.686;2023-12-20T08:33:56;32.28;;;13.10;;
44139;SDS011;29803;51.048;4.686;2023-12-20T08:36:26;29.73;;;9.93;;
44139;SDS011;29803;51.048;4.686;2023-12-20T08:38:57;27.77;;;7.47;;
44139;SDS011;29803;51.048;4.686;2023-12-20T08:41:27;23.60;;;5.78;;
44139;SDS011;29803;51.048;4.686;2023-12-20T08:43:58;40.03;;;14.77;;
44139;SDS011;29803;51.048;4.686;2023-12-20T08:46:28;21.48;;;5.65;;
44139;SDS011;29803;51.048;4.686;2023-12-20T08:48:59;24.13;;;5.32;;
44139;SDS011;29803;51.048;4.686;2023-12-20T08:51:30;17.45;;;7.80;;
44139;SDS011;29803;51.048;4.686;2023-12-20T08:54:01;22.70;;;4.35;;
44139;SDS011;29803;51.048;4.686;2023-12-20T08:56:32;19.38;;;4.25;;
44139;SDS011;29803;51.048;4.686;2023-12-20T08:59:02;26.10;;;6.72;;
44139;SDS011;29803;51.048;4.686;2023-12-20T09:01:33;21.60;;;4.68;;
44139;SDS011;29803;51.048;4.686;2023-12-20T09:04:03;15.15;;;3.72;;
44139;SDS011;29803;51.048;4.686;2023-12-20T09:06:34;15.88;;;2.40;;
44139;SDS011;29803;51.048;4.686;2023-12-20T09:09:04;15.05;;;2.10;;
44139;SDS011;29803;51.048;4.686;2023-12-20T09:11:36;19.52;;;3.35;;
44139;SDS011;29803;51.048;4.686;2023-12-20T09:14:06;17.17;;;3.45;;
44139;SDS011;29803;51.048;4.686;2023-12-20T09:16:37;15.05;;;3.20;;
44139;SDS011;29803;51.048;4.686;2023-12-20T09:19:07;18.85;;;3.25;;
44139;SDS011;29803;51.048;4.686;2023-12-20T09:21:38;15.30;;;7.78;;
44139;SDS011;29803;51.048;4.686;2023-12-20T09:24:08;28.50;;;18.65;;
44139;SDS011;29803;51.048;4.686;2023-12-20T09:26:39;27.52;;;12.13;;
44139;SDS011;29803;51.048;4.686;2023-12-20T09:29:10;18.52;;;3.35;;
44139;SDS011;29803;51.048;4.686;2023-12-20T09:34:16;17.45;;;3.35;;
44139;SDS011;29803;51.048;4.686;2023-12-20T09:36:48;15.32;;;3.00;;
44139;SDS011;29803;51.048;4.686;2023-12-20T09:39:19;19.70;;;3.30;;
44139;SDS011;29803;51.048;4.686;2023-12-20T09:41:55;18.48;;;3.00;;
44139;SDS011;29803;51.048;4.686;2023-12-20T09:44:34;16.35;;;2.75;;
44139;SDS011;29803;51.048;4.686;2023-12-20T09:47:05;17.90;;;2.38;;
44139;SDS011;29803;51.048;4.686;2023-12-20T09:49:36;20.52;;;3.00;;
44139;SDS011;29803;51.048;4.686;2023-12-20T09:52:08;19.17;;;4.47;;
44139;SDS011;29803;51.048;4.686;2023-12-20T09:54:41;18.70;;;3.97;;
44139;SDS011;29803;51.048;4.686;2023-12-20T09:57:13;15.90;;;2.75;;
44139;SDS011;29803;51.048;4.686;2023-12-20T09:59:44;42.72;;;11.75;;
44139;SDS011;29803;51.048;4.686;2023-12-20T10:02:14;63.63;;;19.42;;
44139;SDS011;29803;51.048;4.686;2023-12-20T10:04:51;101.25;;;30.33;;
44139;SDS011;29803;51.048;4.686;2023-12-20T10:07:22;53.25;;;17.58;;
44139;SDS011;29803;51.048;4.686;2023-12-20T10:09:53;54.63;;;18.33;;
44139;SDS011;29803;51.048;4.686;2023-12-20T10:12:25;53.10;;;16.38;;
44139;SDS011;29803;51.048;4.686;2023-12-20T10:14:56;26.67;;;8.70;;
44139;SDS011;29803;51.048;4.686;2023-12-20T10:17:27;55.03;;;17.70;;
44139;SDS011;29803;51.048;4.686;2023-12-20T10:19:59;20.95;;;5.35;;
44139;SDS011;29803;51.048;4.686;2023-12-20T10:22:29;42.40;;;13.05;;
44139;SDS011;29803;51.048;4.686;2023-12-20T10:25:00;26.40;;;6.15;;
44139;SDS011;29803;51.048;4.686;2023-12-20T10:27:30;20.17;;;5.32;;
44139;SDS011;29803;51.048;4.686;2023-12-20T10:30:01;19.98;;;5.28;;
44139;SDS011;29803;51.048;4.686;2023-12-20T10:32:32;16.10;;;3.25;;
44139;SDS011;29803;51.048;4.686;2023-12-20T10:35:02;23.13;;;3.15;;
44139;SDS011;29803;51.048;4.686;2023-12-20T10:37:35;17.88;;;4.55;;
44139;SDS011;29803;51.048;4.686;2023-12-20T10:40:07;17.27;;;3.92;;
44139;SDS011;29803;51.048;4.686;2023-12-20T10:42:38;19.00;;;3.47;;
44139;SDS011;29803;51.048;4.686;2023-12-20T10:45:11;29.13;;;5.82;;
44139;SDS011;29803;51.048;4.686;2023-12-20T10:47:41;24.02;;;6.10;;
44139;SDS011;29803;51.048;4.686;2023-12-20T10:50:14;18.60;;;5.43;;
44139;SDS011;29803;51.048;4.686;2023-12-20T10:52:45;15.20;;;3.58;;
44139;SDS011;29803;51.048;4.686;2023-12-20T10:55:17;20.52;;;3.42;;
44139;SDS011;29803;51.048;4.686;2023-12-20T10:57:47;17.70;;;3.28;;
44139;SDS011;29803;51.048;4.686;2023-12-20T11:00:21;19.08;;;3.30;;
44139;SDS011;29803;51.048;4.686;2023-12-20T11:02:53;26.35;;;3.78;;
44139;SDS011;29803;51.048;4.686;2023-12-20T11:05:40;13.27;;;3.20;;
44139;SDS011;29803;51.048;4.686;2023-12-20T11:08:20;18.20;;;2.92;;
44139;SDS011;29803;51.048;4.686;2023-12-20T11:11:00;17.92;;;3.58;;
44139;SDS011;29803;51.048;4.686;2023-12-20T11:13:39;24.08;;;2.95;;
44139;SDS011;29803;51.048;4.686;2023-12-20T11:16:14;17.98;;;3.13;;
44139;SDS011;29803;51.048;4.686;2023-12-20T11:18:45;13.35;;;2.72;;
44139;SDS011;29803;51.048;4.686;2023-12-20T11:21:15;9.07;;;2.67;;
44139;SDS011;29803;51.048;4.686;2023-12-20T11:23:46;20.05;;;3.83;;
44139;SDS011;29803;51.048;4.686;2023-12-20T11:26:16;17.80;;;3.40;;
44139;SDS011;29803;51.048;4.686;2023-12-20T11:32:27;12.57;;;2.70;;
44139;SDS011;29803;51.048;4.686;2023-12-20T11:34:58;17.02;;;3.30;;
44139;SDS011;29803;51.048;4.686;2023-12-20T11:37:30;19.50;;;3.30;;
44139;SDS011;29803;51.048;4.686;2023-12-20T11:42:42;13.82;;;3.63;;
44139;SDS011;29803;51.048;4.686;2023-12-20T11:45:14;25.83;;;7.57;;
44139;SDS011;29803;51.048;4.686;2023-12-20T11:47:47;22.98;;;6.70;;
44139;SDS011;29803;51.048;4.686;2023-12-20T11:50:20;26.15;;;7.95;;
44139;SDS011;29803;51.048;4.686;2023-12-20T11:52:52;32.55;;;7.55;;
44139;SDS011;29803;51.048;4.686;2023-12-20T11:55:24;17.70;;;4.07;;
44139;SDS011;29803;51.048;4.686;2023-12-20T11:57:54;23.35;;;3.90;;
44139;SDS011;29803;51.048;4.686;2023-12-20T12:00:26;24.20;;;6.13;;
44139;SDS011;29803;51.048;4.686;2023-12-20T12:02:57;28.00;;;6.07;;
44139;SDS011;29803;51.048;4.686;2023-12-20T12:05:30;20.73;;;4.40;;
44139;SDS011;29803;51.048;4.686;2023-12-20T12:08:02;22.10;;;4.43;;
44139;SDS011;29803;51.048;4.686;2023-12-20T12:10:33;20.08;;;4.35;;
44139;SDS011;29803;51.048;4.686;2023-12-20T12:13:03;22.92;;;5.97;;
44139;SDS011;29803;51.048;4.686;2023-12-20T12:15:34;21.52;;;5.70;;
44139;SDS011;29803;51.048;4.686;2023-12-20T12:18:05;25.23;;;10.95;;
44139;SDS011;29803;51.048;4.686;2023-12-20T12:20:36;29.58;;;14.55;;
44139;SDS011;29803;51.048;4.686;2023-12-20T12:23:06;21.65;;;5.80;;
44139;SDS011;29803;51.048;4.686;2023-12-20T12:25:37;22.00;;;6.20;;
44139;SDS011;29803;51.048;4.686;2023-12-20T12:28:07;22.80;;;5.68;;
44139;SDS011;29803;51.048;4.686;2023-12-20T12:30:38;15.38;;;3.85;;
44139;SDS011;29803;51.048;4.686;2023-12-20T12:33:08;15.52;;;3.70;;
44139;SDS011;29803;51.048;4.686;2023-12-20T12:35:40;21.40;;;3.70;;
44139;SDS011;29803;51.048;4.686;2023-12-20T12:38:11;20.35;;;3.38;;
44139;SDS011;29803;51.048;4.686;2023-12-20T12:40:42;21.67;;;3.55;;
44139;SDS011;29803;51.048;4.686;2023-12-20T12:43:13;17.25;;;3.20;;
44139;SDS011;29803;51.048;4.686;2023-12-20T12:45:44;25.23;;;3.75;;
44139;SDS011;29803;51.048;4.686;2023-12-20T12:48:14;23.23;;;4.55;;
44139;SDS011;29803;51.048;4.686;2023-12-20T12:50:45;18.45;;;4.20;;
44139;SDS011;29803;51.048;4.686;2023-12-20T12:53:16;19.25;;;7.18;;
44139;SDS011;29803;51.048;4.686;2023-12-20T12:55:47;22.20;;;4.53;;
44139;SDS011;29803;51.048;4.686;2023-12-20T12:58:17;21.85;;;7.70;;
44139;SDS011;29803;51.048;4.686;2023-12-20T13:00:48;35.92;;;5.57;;
44139;SDS011;29803;51.048;4.686;2023-12-20T13:03:19;24.52;;;4.10;;
44139;SDS011;29803;51.048;4.686;2023-12-20T13:05:49;21.05;;;3.47;;
44139;SDS011;29803;51.048;4.686;2023-12-20T13:08:20;27.65;;;4.05;;
44139;SDS011;29803;51.048;4.686;2023-12-20T13:10:50;20.40;;;3.38;;
44139;SDS011;29803;51.048;4.686;2023-12-20T13:13:21;14.48;;;3.25;;
44139;SDS011;29803;51.048;4.686;2023-12-20T13:15:51;13.68;;;3.50;;
44139;SDS011;29803;51.048;4.686;2023-12-20T13:18:25;19.35;;;3.70;;
44139;SDS011;29803;51.048;4.686;2023-12-20T13:20:55;20.75;;;3.05;;
44139;SDS011;29803;51.048;4.686;2023-12-20T13:23:25;17.65;;;3.63;;
44139;SDS011;29803;51.048;4.686;2023-12-20T13:25:56;12.02;;;3.58;;
44139;SDS011;29803;51.048;4.686;2023-12-20T13:28:27;18.52;;;3.63;;
44139;SDS011;29803;51.048;4.686;2023-12-20T13:30:59;20.60;;;3.72;;
44139;SDS011;29803;51.048;4.686;2023-12-20T13:33:29;20.95;;;4.72;;
44139;SDS011;29803;51.048;4.686;2023-12-20T13:36:00;27.42;;;4.43;;
44139;SDS011;29803;51.048;4.686;2023-12-20T13:38:30;23.30;;;3.65;;
44139;SDS011;29803;51.048;4.686;2023-12-20T13:41:01;24.42;;;5.95;;
44139;SDS011;29803;51.048;4.686;2023-12-20T13:43:31;16.08;;;3.95;;
44139;SDS011;29803;51.048;4.686;2023-12-20T13:46:02;17.75;;;4.13;;
44139;SDS011;29803;51.048;4.686;2023-12-20T13:48:33;20.30;;;4.47;;
44139;SDS011;29803;51.048;4.686;2023-12-20T13:51:03;28.92;;;4.15;;
44139;SDS011;29803;51.048;4.686;2023-12-20T13:53:35;24.85;;;4.57;;
44139;SDS011;29803;51.048;4.686;2023-12-20T13:56:06;18.15;;;4.95;;
44139;SDS011;29803;51.048;4.686;2023-12-20T13:58:37;28.35;;;4.07;;
44139;SDS011;29803;51.048;4.686;2023-12-20T14:01:10;17.17;;;3.35;;
44139;SDS011;29803;51.048;4.686;2023-12-20T14:03:41;22.88;;;4.70;;
44139;SDS011;29803;51.048;4.686;2023-12-20T14:06:12;17.73;;;3.75;;
44139;SDS011;29803;51.048;4.686;2023-12-20T14:08:44;18.67;;;4.15;;
44139;SDS011;29803;51.048;4.686;2023-12-20T14:11:14;27.98;;;4.30;;
44139;SDS011;29803;51.048;4.686;2023-12-20T14:13:45;21.15;;;3.30;;
44139;SDS011;29803;51.048;4.686;2023-12-20T14:16:16;14.25;;;3.45;;
44139;SDS011;29803;51.048;4.686;2023-12-20T14:18:47;23.55;;;3.60;;
44139;SDS011;29803;51.048;4.686;2023-12-20T14:21:17;20.52;;;3.63;;
44139;SDS011;29803;51.048;4.686;2023-12-20T14:23:50;27.20;;;4.03;;
44139;SDS011;29803;51.048;4.686;2023-12-20T14:26:21;23.55;;;4.22;;
44139;SDS011;29803;51.048;4.686;2023-12-20T14:28:52;24.00;;;3.53;;
44139;SDS011;29803;51.048;4.686;2023-12-20T14:31:23;17.90;;;4.03;;
44139;SDS011;29803;51.048;4.686;2023-12-20T14:33:54;20.45;;;3.60;;
44139;SDS011;29803;51.048;4.686;2023-12-20T14:36:25;19.17;;;4.32;;
44139;SDS011;29803;51.048;4.686;2023-12-20T14:38:56;20.52;;;4.45;;
44139;SDS011;29803;51.048;4.686;2023-12-20T14:41:27;16.80;;;3.45;;
44139;SDS011;29803;51.048;4.686;2023-12-20T14:43:58;46.72;;;9.13;;
44139;SDS011;29803;51.048;4.686;2023-12-20T14:46:29;28.73;;;8.75;;
44139;SDS011;29803;51.048;4.686;2023-12-20T14:49:00;39.65;;;11.52;;
44139;SDS011;29803;51.048;4.686;2023-12-20T14:51:32;51.40;;;19.20;;
44139;SDS011;29803;51.048;4.686;2023-12-20T14:54:03;61.20;;;17.85;;
44139;SDS011;29803;51.048;4.686;2023-12-20T14:56:33;33.00;;;10.23;;
44139;SDS011;29803;51.048;4.686;2023-12-20T14:59:05;24.25;;;7.47;;
44139;SDS011;29803;51.048;4.686;2023-12-20T15:01:35;18.27;;;8.43;;
44139;SDS011;29803;51.048;4.686;2023-12-20T15:04:06;14.88;;;6.30;;
44139;SDS011;29803;51.048;4.686;2023-12-20T15:06:38;57.63;;;30.52;;